Tiempo atmosférico en la estación meteorológica de Tresviso, Cantabria (912 m.)



Fecha
DESCASC
Temp. máxima en grados centígrados (hora)
DESCASC
Temp. mínima en grados centígrados (hora)
DESCASC
Temp. media en grados centígrados
DESCASC
Racha de viento máxima en m/sg (hora)
DESCASC
Velocidad máxima media en intervalos de 10 minutos(hora)
DESCASC
Precipitaciones diarias en mm
DESCASC
Precipitaciones de 00:00 a 06:00 en mm
DESCASC
Precipitaciones de 06:00 a 12:00 en mm
DESCASC
Precipitaciones de 12:00 a 18:00 en mm
DESCASC
Precipitaciones de 18:00 a 24:00 en mm
DESCASC
22-01-2020 3.6 (15:40) 1.9 (22:20) 2.7 11.11 (05:50) 6.94 (08:30) -- -- 5.8 0.2 0
21-01-2020 2.2 (23:59) -0.2 (00:00) 1 5.28 (22:00) 3.06 (19:40) -- 0 -- -- --
20-01-2020 0.6 (13:10) -1.5 (08:40) -0.4 16.11 (07:20) 8.61 (00:20) -- 0 0 -- --
19-01-2020 4.4 (01:20) 0 (00:00) 2.2 18.61 (20:50) 10 (23:00) 37 22.4 11 3.4 0.2
18-01-2020 12.3 (14:30) 2.4 (00:00) 7.4 18.61 (17:50) 11.67 (16:10) 9.8 0 0 9.4 0.4
17-01-2020 9 (01:10) 2.3 (00:00) 5.6 11.39 (07:30) 6.94 (07:50) 3 0 3 0 0
16-01-2020 12.9 (03:50) 7.8 (00:00) 10.3 26.67 (08:50) 15.56 (08:50) 0 0 0 0 0
15-01-2020 12.4 (03:50) 5.2 (00:00) 8.8 27.5 (04:20) 17.5 (04:20) 0 0 0 0 0
14-01-2020 11.7 (15:20) 6.4 (00:00) 9 16.11 (23:40) 9.44 (23:50) 0 0 0 0 0
13-01-2020 12.5 (15:00) 6 (00:00) 9.3 5.28 (23:00) 3.89 (23:00) 0 0 0 0 0
12-01-2020 12.6 (15:00) 4.6 (00:00) 8.6 9.17 (08:30) 5.28 (08:20) 0 0 0 0 0
11-01-2020 11.9 (15:30) 1.8 (00:00) 6.8 2.5 (02:30) 1.39 (01:10) 0 0 0 0 0
10-01-2020 4.8 (00:00) 2.3 (00:00) 3.6 16.39 (06:10) 10.56 (09:50) 5 1.6 1.4 2 0
09-01-2020 15.5 (14:40) 4.4 (00:00) 10 20.83 (22:00) 13.61 (22:20) 0.6 0 0 0.4 0.2
08-01-2020 14.8 (14:30) 8.8 (00:00) 11.8 5.56 (22:30) 4.17 (22:40) 0 0 0 0 0
07-01-2020 15.7 (14:20) 6.3 (00:00) 11 4.72 (20:20) 3.61 (20:20) 0 0 0 0 0
06-01-2020 12.3 (12:10) 3.4 (00:00) 7.9 8.61 (17:30) 6.11 (17:30) 0 0 0 0 0
05-01-2020 14.6 (13:00) 1.6 (00:00) 8.1 3.89 (07:40) 2.78 (19:10) 0 0 0 0 0
04-01-2020 7.9 (13:40) 2.5 (00:00) 5.2 6.39 (00:20) 4.72 (00:20) 0 0 0 0 0
03-01-2020 8.8 (05:30) 2.6 (00:00) 5.7 8.61 (18:50) 5.83 (02:50) 4.6 0 1.2 3.4 0
02-01-2020 13.8 (10:40) 3.2 (00:00) 8.5 3.61 (03:20) 2.5 (23:30) 0 0 0 0 0
01-01-2020 12.9 (13:00) 3.7 (00:00) 8.3 2.22 (05:00) 1.67 (22:30) 0 0 0 0 0
31-12-2019 11.5 (04:50) 4.7 (00:00) 8.1 3.61 (12:40) 2.22 (12:40) 0 0 0 0 0
30-12-2019 -- (--) -- (--) -- -- (--) -- (--) -- 0 0 0 --
29-12-2019 20.7 (15:30) 13.5 (00:00) 17.1 3.61 (06:10) 2.5 (06:10) 0 0 0 0 0
28-12-2019 18.5 (14:00) 11.5 (00:00) 15 3.89 (08:40) 2.22 (12:30) 0 0 0 0 0
27-12-2019 15.1 (13:50) 4.5 (00:00) 9.8 4.44 (15:10) 2.5 (15:10) 0 0 0 0 0
26-12-2019 14.7 (00:40) 4.2 (00:00) 9.4 7.78 (00:50) 5.83 (00:50) 0 0 0 0 0
25-12-2019 18 (13:10) 9.5 (00:00) 13.8 6.11 (23:40) 2.78 (18:10) 0 0 0 0 0

Gráficas

Temp. máximas Temp. mínimas Temp. medias Precipitaciones Rachas de viento máximas Velocidades máximas media en intervalos de 10 minutos

Datos horarios

Fecha y hora oficial Temperatura (ºC) Velocidad del viento (km/h) Dirección del viento Racha (km/h) Dirección de racha Precipitación (mm) Presión (hPa) Tendencia (hPa) Humedad (%)
2020-01-23 23:00:00 4.9 4 Norte 9 Nordeste 0 -- -- 69
2020-01-23 22:00:00 5.3 5 Norte 8 Norte 0 -- -- 66
2020-01-23 21:00:00 5 5 Norte 9 Norte 0 -- -- 68
2020-01-23 20:00:00 5.5 4 Norte 6 Norte 0 -- -- 56
2020-01-23 19:00:00 5.7 5 Noroeste 8 Noroeste 0 -- -- 54
2020-01-23 18:00:00 6.1 0 Calma 9 Noroeste 0 -- -- 58
2020-01-23 17:00:00 6.3 5 Oeste 7 Oeste 0 -- -- 60
2020-01-23 16:00:00 6 0 Calma 7 Sur 0 -- -- 74
2020-01-23 15:00:00 6.6 6 Sur 9 Sur 0 -- -- 68
2020-01-23 14:00:00 7.5 0 Calma 7 Sur 0 -- -- 67
2020-01-23 13:00:00 6.6 3 Nordeste 7 Nordeste 0 -- -- 63
2020-01-23 12:00:00 4.9 4 Nordeste 13 Nordeste 0 -- -- 70
2020-01-23 11:00:00 4.2 8 Nordeste 13 Nordeste 0 -- -- 71
2020-01-23 10:00:00 3.2 6 Nordeste 10 Nordeste 0 -- -- 74
2020-01-23 09:00:00 2.8 5 Norte 10 Norte 0 -- -- 77
2020-01-23 08:00:00 3.1 4 Nordeste 8 Norte 0 -- -- 75
2020-01-23 07:00:00 3 4 Norte 15 Norte 0 -- -- 76
2020-01-23 06:00:00 2.6 8 Norte 14 Norte 0 -- -- 82
2020-01-23 05:00:00 3.1 5 Nordeste 11 Este 0 -- -- 77
2020-01-23 04:00:00 3.6 4 Nordeste 12 Norte 0 -- -- 77
2020-01-23 03:00:00 3.9 5 Norte 14 Norte 0 -- -- 75
2020-01-23 02:00:00 2.6 6 Nordeste 10 Norte 0 -- -- 86
2020-01-23 01:00:00 2.3 5 Norte 15 Norte 0 -- -- 91
2020-01-23 00:00:00 2.1 5 Norte 13 Nordeste 0 -- -- 93
2020-01-22 23:00:00 1.9 9 Nordeste 12 Nordeste 0 -- -- 96
2020-01-22 22:00:00 2.1 8 Norte 13 Norte 0 -- -- 97
2020-01-22 21:00:00 2.2 8 Nordeste 17 Nordeste 0 -- -- 97
2020-01-22 20:00:00 2.7 8 Nordeste 13 Nordeste 0 -- -- 98
2020-01-22 19:00:00 2.8 6 Nordeste 10 Nordeste 0 -- -- 97
2020-01-22 18:00:00 3 5 Este 11 Este 0 -- -- 97
2020-01-22 17:00:00 3.2 2 Sudeste 6 Sur 0 -- -- 97
2020-01-22 16:00:00 3.6 3 Sur 9 Sudoeste 0 -- -- 96
2020-01-22 15:00:00 3.4 5 Sudoeste 8 Sudoeste 0 -- -- 97
2020-01-22 14:00:00 3.3 2 Nordeste 8 Nordeste 0.2 -- -- 98
2020-01-22 13:00:00 2.7 6 Norte 8 Norte 0 -- -- 97
2020-01-22 12:00:00 2.6 5 Nordeste 16 Este 0 -- -- 97
2020-01-22 11:00:00 2.6 9 Nordeste 23 Este 0.8 -- -- 97
2020-01-22 10:00:00 2.5 6 Este 22 Nordeste 0.6 -- -- 97
2020-01-22 09:00:00 2.5 15 Nordeste 35 Nordeste 1.6 -- -- 97
2020-01-22 08:00:00 2.8 20 Nordeste 37 Nordeste 1.2 -- -- 97
2020-01-22 07:00:00 3 12 Nordeste 34 Nordeste 1.6 -- -- 97
2020-01-22 06:00:00 3.2 21 Nordeste 40 Nordeste 2 -- -- 97
2020-01-22 05:00:00 3.2 16 Nordeste 31 Nordeste 1.2 -- -- 96
2020-01-22 04:00:00 3.4 9 Este 23 Sudeste 1.2 -- -- 97
2020-01-22 03:00:00 3.2 3 Nordeste 21 Nordeste 1.4 -- -- 97
2020-01-22 02:00:00 3 13 Nordeste 26 Nordeste 2 -- -- 96
2020-01-22 01:00:00 2.5 4 Oeste 8 Noroeste -- -- -- 96
2020-01-22 00:00:00 2.2 7 Norte 12 Nordeste -- -- -- 97
2020-01-21 23:00:00 1.8 5 Nordeste 15 Sudeste -- -- -- 96
2020-01-21 22:00:00 1.6 9 Este 19 Este -- -- -- 97
2020-01-21 21:00:00 1.1 8 Este 16 Este -- -- -- 97
2020-01-21 20:00:00 0.5 6 Norte 17 Nordeste -- -- -- 97
2020-01-21 19:00:00 0.3 7 Nordeste 12 Nordeste -- -- -- 96
2020-01-21 18:00:00 0.2 9 Nordeste 12 Nordeste -- -- -- 97
2020-01-21 17:00:00 0 6 Nordeste 14 Nordeste -- -- -- 96
2020-01-21 16:00:00 0.3 4 Nordeste 9 Nordeste -- -- -- 94
2020-01-21 15:00:00 0.7 0 Calma 10 Nordeste -- -- -- 92
2020-01-21 14:00:00 0.9 2 Noroeste 10 Este -- -- -- 90
2020-01-21 13:00:00 1.6 4 Nordeste 17 Nordeste -- -- -- 82
2020-01-21 12:00:00 1.1 6 Norte 15 Nordeste -- -- -- 85
2020-01-21 11:00:00 1.2 5 Nordeste 13 Norte 0.2 -- -- 80
2020-01-21 10:00:00 0.6 5 Sudeste 14 Sudeste 0.2 -- -- 86
2020-01-21 09:00:00 0.5 4 Este 13 Nordeste 0 -- -- 84
2020-01-21 08:00:00 0.2 3 Nordeste 8 Sudeste 0 -- -- 83
2020-01-21 07:00:00 0 0 Calma 14 Nordeste 0 -- -- 85
2020-01-21 06:00:00 0 8 Nordeste 15 Este 0 -- -- 83
2020-01-21 05:00:00 -0.1 6 Nordeste 15 Este 0 -- -- 85
2020-01-21 04:00:00 0 7 Nordeste 13 Este 0 -- -- 88
2020-01-21 03:00:00 -0.2 9 Nordeste 15 Este 0 -- -- 89
2020-01-21 02:00:00 -0.1 6 Nordeste 17 Nordeste 0 -- -- 89
2020-01-21 01:00:00 -0.1 7 Nordeste 17 Este 0 -- -- 87
2020-01-21 00:00:00 -0.2 7 Nordeste 31 Sudeste 0 -- -- 86
2020-01-20 23:00:00 -0.5 5 Nordeste 18 Este 0 -- -- 88
2020-01-20 22:00:00 -1.1 4 Este 9 Este 0 -- -- 91
2020-01-20 21:00:00 -1 4 Nordeste 16 Este 0 -- -- 88
2020-01-20 20:00:00 -1.1 11 Nordeste 16 Nordeste 0 -- -- 88
2020-01-20 19:00:00 -1.3 6 Nordeste 22 Nordeste 0.2 -- -- 86
2020-01-20 18:00:00 -1.1 12 Nordeste 20 Nordeste 0.4 -- -- 88
2020-01-20 17:00:00 -0.7 5 Este 16 Nordeste 0.2 -- -- 85
2020-01-20 16:00:00 -0.5 11 Nordeste 20 Nordeste 0 -- -- 81
2020-01-20 15:00:00 -0.3 8 Nordeste 21 Nordeste 0 -- -- 78
2020-01-20 14:00:00 0.1 9 Este 30 Este 0 -- -- 79
2020-01-20 13:00:00 -0.1 6 Sur 29 Este 0 -- -- 76
2020-01-20 12:00:00 0 9 Nordeste 28 Este 0 -- -- 78
2020-01-20 11:00:00 -0.6 18 Nordeste 37 Nordeste 0 -- -- 79
2020-01-20 10:00:00 -1.1 18 Nordeste 50 Nordeste 0 -- -- 87
2020-01-20 09:00:00 -1.4 18 Nordeste 45 Nordeste 0 -- -- 91
2020-01-20 08:00:00 -1.1 23 Nordeste 58 Este 0 -- -- 90
2020-01-20 07:00:00 -1.1 20 Nordeste 50 Nordeste 0 -- -- 93
2020-01-20 06:00:00 -0.8 14 Nordeste 45 Este 0 -- -- 89
2020-01-20 05:00:00 -0.8 26 Nordeste 49 Nordeste 0 -- -- 91
2020-01-20 04:00:00 -1 15 Nordeste 41 Este 0 -- -- 94
2020-01-20 03:00:00 -1.2 10 Nordeste 42 Nordeste 0 -- -- 94
2020-01-20 02:00:00 -0.7 23 Nordeste 54 Este 0 -- -- 91
2020-01-20 01:00:00 -0.2 24 Nordeste 53 Nordeste 0 -- -- 84
2020-01-20 00:00:00 0 26 Nordeste 62 Nordeste 0 -- -- 84
2020-01-19 23:00:00 0.3 36 Nordeste 61 Este 0 -- -- 86
2020-01-19 22:00:00 0.6 24 Nordeste 62 Este 0.2 -- -- 83
2020-01-19 21:00:00 0.7 24 Este 67 Este 0 -- -- 82
2020-01-19 20:00:00 0.6 20 Este 48 Este 0 -- -- 84
2020-01-19 19:00:00 0.8 6 Sur 33 Sur 0 -- -- 85
2020-01-19 18:00:00 0.8 9 Este 28 Sudeste 0 -- -- 82
2020-01-19 17:00:00 1.2 9 Sudeste 18 Sudeste 0 -- -- 83
2020-01-19 16:00:00 1.9 8 Sudeste 43 Este 0.2 -- -- 81
2020-01-19 15:00:00 1.8 21 Este 51 Este 1 -- -- 85
2020-01-19 14:00:00 2.2 14 Este 37 Sudeste 1.2 -- -- 85
2020-01-19 13:00:00 2 11 Este 39 Nordeste 1 -- -- 87
2020-01-19 12:00:00 1.6 10 Sudeste 53 Este 0.6 -- -- 92
2020-01-19 11:00:00 1.6 14 Este 40 Este 0.6 -- -- 95
2020-01-19 10:00:00 1.5 13 Sudeste 34 Este 0.8 -- -- 96
2020-01-19 09:00:00 1.7 8 Sur 28 Sur 1.2 -- -- 97
2020-01-19 08:00:00 1.8 14 Sur 25 Sur 3 -- -- 97
2020-01-19 07:00:00 1.5 9 Sur 18 Sur 4.8 -- -- 96
2020-01-19 06:00:00 1.6 14 Sudoeste 37 Este 6.4 -- -- 96
2020-01-19 05:00:00 2.2 8 Sudeste 24 Sudeste 8.4 -- -- 95
2020-01-19 04:00:00 2.4 8 Sur 21 Oeste 6.2 -- -- 92
2020-01-19 03:00:00 4.1 15 Oeste 39 Sudoeste 0.8 -- -- 87
2020-01-19 02:00:00 4.2 24 Sudoeste 38 Oeste 0 -- -- 86
2020-01-19 01:00:00 4.2 25 Sudoeste 41 Sudoeste 0.6 -- -- 84
2020-01-19 00:00:00 4.1 21 Sudoeste 37 Sudoeste 0.4 -- -- 85
2020-01-18 23:00:00 4.3 23 Sudoeste 44 Sudoeste 0 -- -- 83
2020-01-18 22:00:00 4.5 29 Sudoeste 53 Sudoeste 0 -- -- 81
2020-01-18 21:00:00 4.4 16 Oeste 51 Oeste 0 -- -- 81
2020-01-18 20:00:00 4.7 27 Oeste 45 Oeste 0 -- -- 77
2020-01-18 19:00:00 4.6 26 Sudoeste 62 Sudoeste 0 -- -- 75
2020-01-18 18:00:00 3.8 39 Sudoeste 67 Oeste 0.6 -- -- 80
2020-01-18 17:00:00 2.9 37 Oeste 66 Sudoeste 7.2 -- -- 87
2020-01-18 16:00:00 4.9 32 Oeste 61 Sudoeste 1.6 -- -- 81
2020-01-18 15:00:00 10.9 14 Sur 31 Sudoeste 0 -- -- 55
2020-01-18 14:00:00 11.2 7 Nordeste 20 Este 0 -- -- 53
2020-01-18 13:00:00 11.2 9 Nordeste 24 Nordeste 0 -- -- 52
2020-01-18 12:00:00 10.7 8 Nordeste 20 Nordeste 0 -- -- 53
2020-01-18 11:00:00 8.6 12 Nordeste 21 Nordeste 0 -- -- 58
2020-01-18 10:00:00 7.4 10 Nordeste 15 Nordeste 0 -- -- 59
2020-01-18 09:00:00 5.9 11 Norte 15 Norte 0 -- -- 56
2020-01-18 08:00:00 6.5 4 Nordeste 12 Norte 0 -- -- 51
2020-01-18 07:00:00 6 8 Norte 14 Norte 0 -- -- 53
2020-01-18 06:00:00 4.8 8 Nordeste 20 Nordeste 0 -- -- 55
2020-01-18 05:00:00 5 11 Norte 21 Este 0 -- -- 54
2020-01-18 04:00:00 4.7 3 Nordeste 14 Norte 0 -- -- 60
2020-01-18 03:00:00 3.7 6 Nordeste 13 Nordeste 0 -- -- 67
2020-01-18 02:00:00 3.6 2 Norte 10 Norte 0 -- -- 69
2020-01-18 01:00:00 2.7 5 Nordeste 17 Nordeste 0 -- -- 86
2020-01-18 00:00:00 2.4 4 Nordeste 6 Norte 0 -- -- 91
2020-01-17 23:00:00 2.3 2 Norte 7 Norte 0 -- -- 91
2020-01-17 22:00:00 2.5 5 Nordeste 12 Este 0 -- -- 92
2020-01-17 21:00:00 2.8 5 Nordeste 13 Este 0 -- -- 88
2020-01-17 20:00:00 2.9 3 Norte 5 Norte 0 -- -- 85
2020-01-17 19:00:00 3.5 3 Este 17 Oeste 0 -- -- 81
2020-01-17 18:00:00 4.7 10 Oeste 27 Noroeste 0 -- -- 66
2020-01-17 17:00:00 5.1 21 Noroeste 30 Noroeste 0 -- -- 62
2020-01-17 16:00:00 7 13 Oeste 26 Noroeste 0 -- -- 58
2020-01-17 15:00:00 7.4 14 Oeste 31 Oeste 0 -- -- 54
2020-01-17 14:00:00 7.3 15 Sudoeste 40 Sudoeste 0 -- -- 54
2020-01-17 13:00:00 6.5 12 Sudoeste 33 Sudoeste 0 -- -- 64
2020-01-17 12:00:00 4.7 21 Sudoeste 33 Sudoeste 0.2 -- -- 79
2020-01-17 11:00:00 3.8 16 Oeste 35 Oeste 0 -- -- 84
2020-01-17 10:00:00 4 19 Oeste 35 Sudoeste 0.2 -- -- 82
2020-01-17 09:00:00 3.8 15 Sudoeste 29 Oeste 0 -- -- 80
2020-01-17 08:00:00 3.1 19 Oeste 41 Oeste 2.6 -- -- 88
2020-01-17 07:00:00 4.6 14 Oeste 30 Noroeste 0 -- -- 85
2020-01-17 06:00:00 5.6 9 Noroeste 23 Noroeste 0 -- -- 79
2020-01-17 05:00:00 6.1 6 Norte 10 Oeste 0 -- -- 86
2020-01-17 04:00:00 6.4 4 Sudoeste 10 Sudoeste 0 -- -- 79
2020-01-17 03:00:00 6.9 4 Norte 14 Nordeste 0 -- -- 66
2020-01-17 02:00:00 7.9 7 Noroeste 15 Norte 0 -- -- 60
2020-01-17 01:00:00 8.9 10 Noroeste 20 Oeste 0 -- -- 54
2020-01-17 00:00:00 7.8 6 Nordeste 19 Este 0 -- -- 65
2020-01-16 23:00:00 8.5 10 Nordeste 54 Sudeste 0 -- -- 61
2020-01-16 22:00:00 9.1 31 Sudeste 71 Sur 0 -- -- 59
2020-01-16 21:00:00 8.7 20 Nordeste 38 Nordeste 0 -- -- 61
2020-01-16 20:00:00 10.3 14 Nordeste 63 Sur 0 -- -- 53
2020-01-16 19:00:00 10.5 20 Sudeste 51 Este 0 -- -- 51
2020-01-16 18:00:00 10.6 19 Sur 62 Sudoeste 0 -- -- 54
2020-01-16 17:00:00 11.2 29 Sudoeste 61 Sudoeste 0 -- -- 51
2020-01-16 16:00:00 11.4 27 Sur 57 Sur 0 -- -- 51
2020-01-16 15:00:00 11.5 40 Sudoeste 80 Sudoeste 0 -- -- 49
2020-01-16 14:00:00 11.5 23 Sudoeste 81 Oeste 0 -- -- 53
2020-01-16 13:00:00 11.4 19 Sur 66 Sudoeste 0 -- -- 56
2020-01-16 12:00:00 12.2 19 Sur 57 Sudoeste 0 -- -- 53
2020-01-16 11:00:00 11.7 24 Sudoeste 70 Sur 0 -- -- 54
2020-01-16 10:00:00 12.1 14 Sur 80 Sudeste 0 -- -- 53
2020-01-16 09:00:00 11.9 55 Sur 96 Sur 0 -- -- 56
2020-01-16 08:00:00 12.4 13 Norte 74 Sudoeste 0 -- -- 50
2020-01-16 07:00:00 12.5 24 Oeste 70 Sudoeste 0 -- -- 49
2020-01-16 06:00:00 12.2 34 Sudoeste 74 Sudoeste 0 -- -- 45
2020-01-16 05:00:00 12.4 26 Oeste 55 Sudoeste 0 -- -- 47
2020-01-16 04:00:00 12.2 10 Nordeste 53 Sudoeste 0 -- -- 55
2020-01-16 03:00:00 12.6 14 Sudoeste 36 Oeste 0 -- -- 50
2020-01-16 02:00:00 12.3 20 Oeste 38 Noroeste 0 -- -- 45
2020-01-16 01:00:00 9.5 14 Nordeste 32 Este 0 -- -- 62
2020-01-16 00:00:00 9.3 9 Nordeste 21 Noroeste 0 -- -- 51
2020-01-15 23:00:00 8.2 10 Norte 24 Nordeste 0 -- -- 51
2020-01-15 22:00:00 7.6 9 Norte 14 Nordeste 0 -- -- 58
2020-01-15 21:00:00 7.1 8 Norte 18 Nordeste 0 -- -- 64
2020-01-15 20:00:00 6.3 8 Nordeste 13 Nordeste 0 -- -- 80
2020-01-15 19:00:00 5.9 4 Sudoeste 7 Sudoeste 0 -- -- 95
2020-01-15 18:00:00 6.4 5 Sur 8 Sudoeste 0 -- -- 94
2020-01-15 17:00:00 6.8 3 Sur 6 Sur 0 -- -- 93
2020-01-15 16:00:00 7.9 4 Sur 7 Sur 0 -- -- 90
2020-01-15 15:00:00 8.5 4 Sudeste 11 Sudeste 0 -- -- 89
2020-01-15 14:00:00 10.5 5 Sudeste 15 Sur 0 -- -- 78
2020-01-15 13:00:00 10.7 5 Sur 13 Sur 0 -- -- 73
2020-01-15 12:00:00 11.6 4 Este 21 Sur 0 -- -- 60
2020-01-15 11:00:00 8.9 4 Este 21 Nordeste 0 -- -- 66
2020-01-15 10:00:00 9 9 Nordeste 27 Nordeste 0 -- -- 62
2020-01-15 09:00:00 9 16 Norte 25 Norte 0 -- -- 62
2020-01-15 08:00:00 9.1 9 Nordeste 22 Norte 0 -- -- 61
2020-01-15 07:00:00 10 7 Este 46 Sudoeste 0 -- -- 54
2020-01-15 06:00:00 11.7 29 Sudoeste 59 Oeste 0 -- -- 45
2020-01-15 05:00:00 11.3 28 Oeste 99 Sudoeste 0 -- -- 49
2020-01-15 04:00:00 12.3 56 Sudoeste 94 Sudoeste 0 -- -- 41
2020-01-15 03:00:00 11.7 43 Sudoeste 89 Sudoeste 0 -- -- 46
2020-01-15 02:00:00 11.9 26 Sudoeste 67 Sudoeste 0 -- -- 42
2020-01-15 01:00:00 12 38 Sudoeste 80 Sudoeste 0 -- -- 37
2020-01-15 00:00:00 9.8 34 Sudoeste 58 Sudoeste 0 -- -- 48
2020-01-14 23:00:00 8 9 Norte 23 Norte 0 -- -- 57
2020-01-14 22:00:00 7.9 8 Norte 24 Nordeste 0 -- -- 55
2020-01-14 21:00:00 8.2 5 Nordeste 15 Nordeste 0 -- -- 52
2020-01-14 20:00:00 8.4 5 Norte 20 Oeste 0 -- -- 51
2020-01-14 19:00:00 8.5 3 Nordeste 17 Oeste 0 -- -- 49
2020-01-14 18:00:00 8.5 7 Nordeste 12 Nordeste 0 -- -- 52
2020-01-14 17:00:00 11 5 Sudeste 15 Sudoeste 0 -- -- 43
2020-01-14 16:00:00 10.5 5 Norte 16 Sur 0 -- -- 43
2020-01-14 15:00:00 11.5 5 Este 12 Nordeste 0 -- -- 41
2020-01-14 14:00:00 11.3 5 Este 15 Este 0 -- -- 42
2020-01-14 13:00:00 10.3 6 Este 19 Nordeste 0 -- -- 49
2020-01-14 12:00:00 8.8 7 Nordeste 17 Nordeste 0 -- -- 58
2020-01-14 11:00:00 7.4 8 Nordeste 15 Nordeste 0 -- -- 65
2020-01-14 10:00:00 6.9 8 Nordeste 12 Norte 0 -- -- 68
2020-01-14 09:00:00 7 5 Nordeste 9 Norte 0 -- -- 67
2020-01-14 08:00:00 7.3 2 Nordeste 12 Norte 0 -- -- 66
2020-01-14 07:00:00 6.9 8 Norte 16 Norte 0 -- -- 67
2020-01-14 06:00:00 7.1 9 Nordeste 18 Nordeste 0 -- -- 62
2020-01-14 05:00:00 7.2 8 Nordeste 14 Nordeste 0 -- -- 59
2020-01-14 04:00:00 7 9 Nordeste 13 Nordeste 0 -- -- 56
2020-01-14 03:00:00 6.9 9 Nordeste 17 Nordeste 0 -- -- 55
2020-01-14 02:00:00 6.8 9 Norte 15 Norte 0 -- -- 53
2020-01-14 01:00:00 6.8 8 Norte 19 Norte 0 -- -- 49
2020-01-14 00:00:00 6.4 6 Norte 17 Nordeste 0 -- -- 47
2020-01-13 23:00:00 6.2 14 Nordeste 19 Nordeste 0 -- -- 49
2020-01-13 22:00:00 6.7 4 Norte 16 Nordeste 0 -- -- 36
2020-01-13 21:00:00 7.1 12 Nordeste 15 Nordeste 0 -- -- 36
2020-01-13 20:00:00 7.9 6 Norte 12 Norte 0 -- -- 29
2020-01-13 19:00:00 8.2 10 Norte 13 Norte 0 -- -- 29
2020-01-13 18:00:00 8.8 9 Norte 15 Nordeste 0 -- -- 30
2020-01-13 17:00:00 10.7 6 Nordeste 10 Nordeste 0 -- -- 27
2020-01-13 16:00:00 11.7 3 Nordeste 7 Norte 0 -- -- 24
2020-01-13 15:00:00 12.5 3 Este 6 Sur 0 -- -- 29
2020-01-13 14:00:00 12.3 4 Este 10 Este 0 -- -- 24
2020-01-13 13:00:00 10.5 3 Nordeste 13 Nordeste 0 -- -- 24
2020-01-13 12:00:00 10 5 Este 9 Este 0 -- -- 29
2020-01-13 11:00:00 8.6 5 Nordeste 6 Norte 0 -- -- 28
2020-01-13 10:00:00 7.1 0 Calma 8 Oeste 0 -- -- 32
2020-01-13 09:00:00 6.1 4 Noroeste 12 Nordeste 0 -- -- 30
2020-01-13 08:00:00 6.3 7 Nordeste 10 Norte 0 -- -- 44
2020-01-13 07:00:00 7.9 6 Noroeste 10 Noroeste 0 -- -- 43
2020-01-13 06:00:00 7.4 3 Sudoeste 10 Noroeste 0 -- -- 41
2020-01-13 05:00:00 7.1 4 Noroeste 8 Norte 0 -- -- 46
2020-01-13 04:00:00 7.2 3 Sudeste 8 Sudoeste 0 -- -- 40
2020-01-13 03:00:00 7.5 3 Oeste 6 Sudoeste 0 -- -- 33
2020-01-13 02:00:00 7.1 0 Calma 8 Norte 0 -- -- 34
2020-01-13 01:00:00 7.2 6 Norte 9 Noroeste 0 -- -- 39
2020-01-13 00:00:00 6.7 3 Sudoeste 6 Sudoeste 0 -- -- 46
2020-01-12 23:00:00 6.7 3 Sudoeste 8 Noroeste 0 -- -- 54
2020-01-12 22:00:00 6.3 5 Norte 8 Norte 0 -- -- 61
2020-01-12 21:00:00 6.4 0 Calma 4 Oeste 0 -- -- 67
2020-01-12 20:00:00 6.6 0 Calma 6 Noroeste 0 -- -- 68
2020-01-12 19:00:00 6.9 4 Norte 6 Norte 0 -- -- 67
2020-01-12 18:00:00 8.1 0 Calma 5 Sudoeste 0 -- -- 64
2020-01-12 17:00:00 9.8 4 Sur 12 Sur 0 -- -- 58
2020-01-12 16:00:00 11.9 7 Sur 12 Sur 0 -- -- 49
2020-01-12 15:00:00 12.6 7 Sudeste 12 Sur 0 -- -- 50
2020-01-12 14:00:00 12.1 5 Sudeste 13 Sur 0 -- -- 48
2020-01-12 13:00:00 11.4 4 Sur 9 Sudeste 0 -- -- 45
2020-01-12 12:00:00 10.7 2 Este 10 Sur 0 -- -- 34
2020-01-12 11:00:00 9.3 6 Sur 19 Oeste 0 -- -- 39
2020-01-12 10:00:00 8.5 14 Oeste 24 Oeste 0 -- -- 39
2020-01-12 09:00:00 7.1 17 Oeste 33 Oeste 0 -- -- 30
2020-01-12 08:00:00 6.9 14 Oeste 21 Oeste 0 -- -- 30
2020-01-12 07:00:00 6.1 3 Este 8 Sudoeste 0 -- -- 38
2020-01-12 06:00:00 6 2 Nordeste 5 Nordeste 0 -- -- 40
2020-01-12 05:00:00 4.6 5 Norte 9 Nordeste 0 -- -- 44
2020-01-12 04:00:00 6 5 Norte 9 Norte 0 -- -- 37
2020-01-12 03:00:00 5.5 2 Nordeste 7 Este 0 -- -- 43
2020-01-12 02:00:00 5.6 2 Sudoeste 6 Norte 0 -- -- 41
2020-01-12 01:00:00 5.3 4 Norte 6 Norte 0 -- -- 47
2020-01-12 00:00:00 5.3 0 Calma 4 Norte 0 -- -- 44
2020-01-11 23:00:00 5.3 2 Oeste 4 Sudoeste 0 -- -- 47
2020-01-11 22:00:00 5.2 2 Sudoeste 4 Norte 0 -- -- 53
2020-01-11 21:00:00 5.6 0 Calma 5 Norte 0 -- -- 43
2020-01-11 20:00:00 5.9 0 Calma 3 Norte 0 -- -- 47
2020-01-11 19:00:00 6.4 3 Sudoeste 5 Sur 0 -- -- 48
2020-01-11 18:00:00 7.4 0 Calma 3 Nordeste 0 -- -- 42
2020-01-11 17:00:00 9.9 0 Calma 6 Sur 0 -- -- 39
2020-01-11 16:00:00 11.5 3 Sur 8 Sudeste 0 -- -- 41
2020-01-11 15:00:00 11.2 0 Calma 7 Sudeste 0 -- -- 40
2020-01-11 14:00:00 10.8 4 Sudeste 8 Sur 0 -- -- 48
2020-01-11 13:00:00 8.9 3 Sudeste 7 Sur 0 -- -- 55
2020-01-11 12:00:00 7.8 0 Calma 7 Sur 0 -- -- 63
2020-01-11 11:00:00 6.6 2 Sur 5 Sudoeste 0 -- -- 60
2020-01-11 10:00:00 3.4 5 Norte 7 Norte 0 -- -- 64
2020-01-11 09:00:00 2.8 3 Sudoeste 5 Sudoeste 0 -- -- 61
2020-01-11 08:00:00 2.4 3 Oeste 5 Sudoeste 0 -- -- 74
2020-01-11 07:00:00 2.1 3 Norte 6 Norte 0 -- -- 78
2020-01-11 06:00:00 1.8 3 Norte 8 Noroeste 0 -- -- 82
2020-01-11 05:00:00 1.8 2 Norte 6 Noroeste 0 -- -- 85
2020-01-11 04:00:00 2.1 4 Norte 9 Norte 0 -- -- 84
2020-01-11 03:00:00 2.2 4 Norte 9 Norte 0 -- -- 85
2020-01-11 02:00:00 2.2 3 Norte 8 Noroeste 0 -- -- 85
2020-01-11 01:00:00 2.3 3 Noroeste 7 Noroeste 0 -- -- 87
2020-01-11 00:00:00 2.4 5 Norte 10 Norte 0 -- -- 89
2020-01-10 23:00:00 2.5 6 Noroeste 9 Noroeste 0 -- -- 90
2020-01-10 22:00:00 2.8 0 Calma 4 Este 0 -- -- 86
2020-01-10 21:00:00 3 2 Sudoeste 8 Norte 0 -- -- 87
2020-01-10 20:00:00 2.9 4 Norte 7 Norte 0 -- -- 88
2020-01-10 19:00:00 2.9 4 Norte 14 Noroeste 0 -- -- 89
2020-01-10 18:00:00 3.5 6 Oeste 17 Oeste 0 -- -- 87
2020-01-10 17:00:00 3.8 9 Oeste 15 Oeste 0 -- -- 88
2020-01-10 16:00:00 3.8 7 Sudoeste 17 Sudoeste 0.4 -- -- 92
2020-01-10 15:00:00 4 13 Sudoeste 25 Oeste 0.2 -- -- 88
2020-01-10 14:00:00 3.8 13 Oeste 28 Sudoeste 0.6 -- -- 88
2020-01-10 13:00:00 3.7 18 Sudoeste 31 Sudoeste 0.8 -- -- 88
2020-01-10 12:00:00 3.5 20 Sudoeste 41 Sudoeste 0 -- -- 85
2020-01-10 11:00:00 3.8 21 Sudoeste 47 Sudoeste 0 -- -- 80
2020-01-10 10:00:00 3.5 35 Sudoeste 54 Sudoeste 1 -- -- 82
2020-01-10 09:00:00 2.7 22 Sudoeste 44 Sudoeste 0.2 -- -- 87
2020-01-10 08:00:00 3 25 Oeste 58 Sudoeste 0 -- -- 82
2020-01-10 07:00:00 3.3 33 Oeste 59 Sudoeste 0.2 -- -- 79
2020-01-10 06:00:00 3.4 27 Oeste 47 Oeste 0 -- -- 75
2020-01-10 05:00:00 3.4 27 Oeste 54 Oeste 0.2 -- -- 72
2020-01-10 04:00:00 2.7 21 Oeste 47 Oeste 0.4 -- -- 84
2020-01-10 03:00:00 3.7 30 Oeste 49 Sudoeste 0.4 -- -- 75
2020-01-10 02:00:00 4 23 Sudoeste 48 Sudoeste 0.6 -- -- 74
2020-01-10 01:00:00 3.5 16 Oeste 44 Oeste 0 -- -- 81
2020-01-10 00:00:00 4.8 23 Oeste 42 Oeste 0 -- -- 66
2020-01-09 23:00:00 5.2 31 Oeste 72 Oeste 0 -- -- 62
2020-01-09 22:00:00 5.1 38 Oeste 75 Oeste 0 -- -- 60
2020-01-09 21:00:00 4.6 29 Oeste 49 Oeste 0 -- -- 75
2020-01-09 20:00:00 6.6 29 Oeste 52 Oeste 0 -- -- 63
2020-01-09 19:00:00 6.3 18 Sudoeste 39 Oeste 0.2 -- -- 85
2020-01-09 18:00:00 5.6 15 Oeste 49 Oeste 0.4 -- -- 92
2020-01-09 17:00:00 5.9 25 Oeste 49 Noroeste 0 -- -- 88
2020-01-09 16:00:00 7.2 23 Oeste 54 Noroeste 0 -- -- 86
2020-01-09 15:00:00 13.5 21 Nordeste 45 Nordeste 0 -- -- 54
2020-01-09 14:00:00 14.2 7 Nordeste 13 Sur 0 -- -- 52
2020-01-09 13:00:00 13.5 5 Nordeste 17 Este 0 -- -- 52
2020-01-09 12:00:00 12.3 8 Nordeste 12 Nordeste 0 -- -- 56
2020-01-09 11:00:00 11 7 Nordeste 13 Nordeste 0 -- -- 58
2020-01-09 10:00:00 10.8 6 Nordeste 14 Oeste 0 -- -- 53
2020-01-09 09:00:00 9.3 7 Nordeste 14 Nordeste 0 -- -- 54
2020-01-09 08:00:00 10.8 2 Nordeste 7 Noroeste 0 -- -- 53
2020-01-09 07:00:00 10.7 3 Sudoeste 13 Noroeste 0 -- -- 56
2020-01-09 06:00:00 10.6 3 Norte 12 Noroeste 0 -- -- 58
2020-01-09 05:00:00 10.4 7 Noroeste 13 Noroeste 0 -- -- 55
2020-01-09 04:00:00 10.5 7 Noroeste 10 Noroeste 0 -- -- 65
2020-01-09 03:00:00 10.6 5 Noroeste 12 Noroeste 0 -- -- 62
2020-01-09 02:00:00 10.9 4 Noroeste 9 Noroeste 0 -- -- 54
2020-01-09 01:00:00 10.7 6 Noroeste 11 Noroeste 0 -- -- 49
2020-01-09 00:00:00 10.7 5 Norte 12 Oeste 0 -- -- 49
2020-01-08 23:00:00 11.6 11 Oeste 20 Oeste 0 -- -- 41
2020-01-08 22:00:00 10.8 0 Calma 10 Sudoeste 0 -- -- 33
2020-01-08 21:00:00 10.7 0 Calma 4 Sudoeste 0 -- -- 41
2020-01-08 20:00:00 10.6 3 Noroeste 6 Oeste 0 -- -- 40
2020-01-08 19:00:00 10.9 4 Noroeste 6 Noroeste 0 -- -- 37
2020-01-08 18:00:00 11.3 0 Calma 4 Norte 0 -- -- 36
2020-01-08 17:00:00 13.6 0 Calma 8 Sur 0 -- -- 32
2020-01-08 16:00:00 14.2 5 Sur 12 Sur 0 -- -- 33
2020-01-08 15:00:00 14.7 6 Sudeste 12 Sur 0 -- -- 32
2020-01-08 14:00:00 14.6 7 Sur 10 Sudeste 0 -- -- 28
2020-01-08 13:00:00 13.2 5 Nordeste 9 Este 0 -- -- 25
2020-01-08 12:00:00 13.7 3 Sur 7 Sudeste 0 -- -- 31
2020-01-08 11:00:00 12 2 Nordeste 4 Este 0 -- -- 28
2020-01-08 10:00:00 9.9 4 Sudoeste 7 Norte 0 -- -- 29
2020-01-08 09:00:00 9.3 3 Noroeste 5 Noroeste 0 -- -- 28
2020-01-08 08:00:00 9 0 Calma 4 Sudeste 0 -- -- 31
2020-01-08 07:00:00 9.3 2 Norte 5 Norte 0 -- -- 29
2020-01-08 06:00:00 9.9 3 Nordeste 6 Noroeste 0 -- -- 25
2020-01-08 05:00:00 9.6 2 Nordeste 5 Norte 0 -- -- 27
2020-01-08 04:00:00 9.7 0 Calma 5 Norte 0 -- -- 27
2020-01-08 03:00:00 9.8 4 Nordeste 6 Nordeste 0 -- -- 27
2020-01-08 02:00:00 10.1 0 Calma 8 Norte 0 -- -- 27
2020-01-08 01:00:00 9.6 5 Norte 8 Norte 0 -- -- 24
2020-01-08 00:00:00 10 5 Norte 9 Norte 0 -- -- 22
2020-01-07 23:00:00 9.6 4 Nordeste 9 Norte 0 -- -- 25
2020-01-07 22:00:00 9.8 5 Norte 8 Norte 0 -- -- 25
2020-01-07 21:00:00 10.3 7 Este 17 Oeste 0 -- -- 25
2020-01-07 20:00:00 11.6 10 Oeste 13 Oeste 0 -- -- 17
2020-01-07 19:00:00 10.7 3 Noroeste 5 Sudoeste 0 -- -- 27
2020-01-07 18:00:00 10.7 3 Sudoeste 6 Sur 0 -- -- 39
2020-01-07 17:00:00 13.7 0 Calma 9 Sur 0 -- -- 33
2020-01-07 16:00:00 14.4 4 Sudeste 12 Sur 0 -- -- 32
2020-01-07 15:00:00 14.8 6 Sur 10 Sur 0 -- -- 28
2020-01-07 14:00:00 14.9 2 Nordeste 7 Sur 0 -- -- 28
2020-01-07 13:00:00 13.7 2 Nordeste 6 Nordeste 0 -- -- 27
2020-01-07 12:00:00 12.6 3 Norte 6 Sur 0 -- -- 29
2020-01-07 11:00:00 12.7 5 Sur 8 Sudoeste 0 -- -- 29
2020-01-07 10:00:00 10 3 Oeste 5 Sudoeste 0 -- -- 29
2020-01-07 09:00:00 8.5 0 Calma 6 Noroeste 0 -- -- 40
2020-01-07 08:00:00 8.2 3 Noroeste 12 Norte 0 -- -- 40
2020-01-07 07:00:00 9 6 Noroeste 13 Noroeste 0 -- -- 45
2020-01-07 06:00:00 8.8 6 Noroeste 10 Noroeste 0 -- -- 39
2020-01-07 05:00:00 8.3 2 Sudoeste 12 Noroeste 0 -- -- 52
2020-01-07 04:00:00 8.5 6 Noroeste 11 Noroeste 0 -- -- 57
2020-01-07 03:00:00 8.2 4 Norte 8 Noroeste 0 -- -- 51
2020-01-07 02:00:00 7.5 2 Norte 11 Norte 0 -- -- 38
2020-01-07 01:00:00 6.3 6 Norte 10 Norte 0 -- -- 45
2020-01-07 00:00:00 6.4 2 Sudeste 8 Norte 0 -- -- 48
2020-01-06 23:00:00 5.2 4 Norte 10 Norte 0 -- -- 62
2020-01-06 22:00:00 4.5 8 Norte 14 Norte 0 -- -- 71
2020-01-06 21:00:00 5.2 3 Sur 16 Sudoeste 0 -- -- 63
2020-01-06 20:00:00 3.7 2 Sudoeste 9 Sudoeste 0 -- -- 93
2020-01-06 19:00:00 4.9 6 Sur 12 Nordeste 0 -- -- 82
2020-01-06 18:00:00 10.8 11 Oeste 31 Oeste 0 -- -- 34
2020-01-06 17:00:00 8.3 12 Sudoeste 22 Oeste 0 -- -- 49
2020-01-06 16:00:00 6.6 2 Oeste 8 Sur 0 -- -- 78
2020-01-06 15:00:00 7.3 5 Sur 9 Sur 0 -- -- 73
2020-01-06 14:00:00 8.9 7 Sur 12 Sur 0 -- -- 61
2020-01-06 13:00:00 12 3 Sudeste 7 Sudeste 0 -- -- 41
2020-01-06 12:00:00 11.8 3 Este 6 Sudeste 0 -- -- 37
2020-01-06 11:00:00 10.5 2 Nordeste 5 Norte 0 -- -- 32
2020-01-06 10:00:00 7.3 0 Calma 6 Nordeste 0 -- -- 43